Latest Weather Observations for Perth Airport

IDW60901

Issued at 8:21 pm WST Friday 4 September 2015 (issued every 10 minutes, with the page automatically refreshed every 10 minutes)

About weather observations | Map of Perth area stations | Latest observations for Perth area | Other Formats
Station Details ID: 009021 Name: PERTH AIRPORT Lat: -31.93 Lon: 115.98 Height: 15.4 m
Data from the previous 72 hours. | See also: Recent months at Perth Airport
Date/Time
WST
Tmp

°C
App
Tmp
°C
Dew
Point
°C
Rel
Hum
%
Delta-T

°C
Wind Press
QNH
hPa
Press
MSL
hPa
Rain
since
9 am
mm
Dir
 
Spd
km/h
Gust
km/h
Spd
kts
Gust
kts
04/08:00pm 16.5 14.3 12.1 75 2.4 N 15 19 8 10 1017.6 - 0.0
04/07:30pm 16.4 14.2 12.0 75 2.4 N 15 19 8 10 1017.3 - 0.0
04/07:00pm 17.1 14.9 12.2 73 2.7 NNW 15 20 8 11 1017.3 - 0.0
04/06:30pm 17.2 14.1 11.5 69 3.1 NW 19 28 10 15 1017.1 - 0.0
04/06:00pm 17.2 12.9 10.9 66 3.4 NW 24 32 13 17 1016.5 1016.5 0.0
04/05:30pm 17.4 12.9 10.2 62 3.8 WNW 24 32 13 17 1016.2 - 0.0
04/05:00pm 18.3 14.1 9.8 57 4.5 NNW 22 35 12 19 1015.3 - 0.0
04/04:30pm 18.0 14.5 10.1 60 4.2 NNW 19 24 10 13 1014.9 - 0.0
04/04:00pm 18.0 14.3 10.1 60 4.2 NNW 20 26 11 14 1015.2 - 0.0
04/03:30pm 18.6 14.9 10.2 58 4.5 NW 20 30 11 16 1016.0 - 0.0
04/03:00pm 18.4 14.1 9.5 56 4.7 NNW 22 28 12 15 1015.6 1015.6 0.0
04/02:30pm 19.8 15.1 9.2 50 5.6 NW 24 35 13 19 1016.2 - 0.0
04/02:00pm 19.2 14.3 8.6 50 5.5 W 24 32 13 17 1016.2 - 0.0
04/01:30pm 19.1 14.5 8.0 48 5.7 WNW 22 33 12 18 1016.3 - 0.0
04/01:00pm 19.7 15.1 8.1 47 6.0 WNW 22 33 12 18 1016.5 - 0.0
04/12:30pm 19.5 14.7 7.5 45 6.1 NW 22 32 12 17 1016.8 - 0.0
04/12:00pm 19.8 15.3 6.9 43 6.5 W 20 33 11 18 1016.8 1016.8 0.0
04/11:30am 19.4 14.4 6.4 42 6.5 WNW 22 30 12 16 1016.9 - 0.0
04/11:00am 19.1 14.5 6.7 44 6.2 NW 20 28 11 15 1017.1 - 0.0
04/10:30am 18.0 16.5 8.5 53 4.9 N 6 11 3 6 1017.6 - 0.0
04/10:00am 16.9 15.2 8.5 57 4.3 N 7 11 4 6 1017.9 - 0.0
04/09:30am 14.3 12.0 7.4 63 3.4 N 9 13 5 7 1017.9 - 0.0
04/09:00am 13.2 10.7 6.5 64 3.2 NNE 9 13 5 7 1017.9 1017.9 0.0
04/08:30am 11.6 7.5 4.5 61 3.2 NNE 15 17 8 9 1018.1 - 0.0
04/08:00am 9.9 6.5 4.2 67 2.5 NNE 11 13 6 7 1018.0 - 0.0
04/07:30am 7.5 4.1 3.8 77 1.6 N 11 13 6 7 1017.9 - 0.0
04/07:00am 5.1 1.9 3.2 87 0.8 N 9 11 5 6 1017.4 - 0.0
04/06:30am 5.1 1.9 3.2 87 0.8 N 9 11 5 6 1016.8 - 0.0
04/06:00am 6.3 3.5 3.4 82 1.2 NE 7 9 4 5 1016.4 1016.4 0.0
04/05:30am 7.0 3.8 2.9 75 1.7 NE 9 13 5 7 1016.2 - 0.0
04/05:00am 7.1 3.9 3.0 75 1.7 NE 9 11 5 6 1016.2 - 0.0
04/04:30am 5.9 1.6 3.0 82 1.2 ENE 15 17 8 9 1016.3 - 0.0
04/04:00am 5.3 2.1 3.1 86 0.9 NNE 9 11 5 6 1016.4 - 0.0
04/03:30am 6.0 3.3 3.6 84 1.0 NNE 7 9 4 5 1016.2 - 0.0
04/03:00am 7.4 4.6 3.4 76 1.7 NNE 7 9 4 5 1016.3 1016.3 0.0
04/02:30am 9.3 5.8 3.3 66 2.6 NE 11 13 6 7 1016.5 - 0.0
04/02:00am 10.4 6.4 2.7 59 3.3 NE 13 17 7 9 1016.7 - 0.0
04/01:30am 10.2 6.6 3.0 61 3.1 NE 11 15 6 8 1017.1 - 0.0
04/01:00am 10.9 6.6 3.1 58 3.4 NE 15 15 8 8 1017.2 - 0.0
04/12:30am 10.1 6.3 3.7 64 2.8 ENE 13 22 7 12 1017.6 - 0.0
04/12:00am 9.7 6.7 4.0 67 2.5 NE 9 19 5 10 1017.9 1017.9 0.0
 
Date/Time
WST
Tmp

°C
App
Tmp
°C
Dew
Point
°C
Rel
Hum
%
Delta-T

°C
Wind Press
QNH
hPa
Press
MSL
hPa
Rain
since
9 am
mm
Dir
 
Spd
km/h
Gust
km/h
Spd
kts
Gust
kts
03/11:30pm 6.8 4.0 5.0 88 0.8 NNE 9 13 5 7 1018.4 - 0.0
03/11:00pm 7.1 4.7 5.1 87 0.9 NNE 7 9 4 5 1018.8 - 0.0
03/10:30pm 7.7 5.5 5.5 86 1.0 N 6 13 3 7 1019.1 - 0.0
03/10:00pm 8.2 5.9 5.5 83 1.2 NNW 7 9 4 5 1019.5 - 0.0
03/09:30pm 9.3 7.0 5.8 79 1.6 NNW 7 9 4 5 1019.5 - 0.0
03/09:00pm 9.6 7.4 6.1 79 1.6 NNW 7 9 4 5 1019.6 1019.6 0.0
03/08:30pm 9.9 7.9 6.2 78 1.7 E 6 7 3 4 1019.5 - 0.0
03/08:00pm 10.8 8.6 6.1 73 2.2 E 7 7 4 4 1019.5 - 0.0
03/07:30pm 11.6 9.6 6.3 70 2.5 E 6 7 3 4 1019.3 - 0.0
03/07:00pm 13.2 10.9 5.8 61 3.5 E 7 9 4 5 1019.2 - 0.0
03/06:30pm 14.8 11.9 6.3 56 4.1 E 11 13 6 7 1019.0 - 0.0
03/06:00pm 16.7 13.1 5.2 46 5.5 E 13 19 7 10 1019.0 1019.0 0.0
03/05:30pm 18.4 14.6 4.0 38 6.8 E 13 15 7 8 1018.9 - 0.0
03/05:00pm 19.1 15.3 3.9 36 7.2 ENE 13 22 7 12 1018.8 - 0.0
03/04:30pm 20.1 16.7 1.7 29 8.4 ENE 9 15 5 8 1019.1 - 0.0
03/04:00pm 20.4 17.5 1.5 28 8.6 N 6 17 3 9 1019.4 - 0.0
03/03:30pm 20.7 16.4 0.7 26 9.0 N 13 20 7 11 1019.6 - 0.0
03/03:00pm 20.8 16.7 0.1 25 9.2 ENE 11 19 6 10 1019.7 1019.7 0.0
03/02:30pm 20.3 17.2 1.3 28 8.6 N 7 15 4 8 1020.1 - 0.0
03/02:00pm 20.0 16.8 -0.7 25 9.0 ESE 6 9 3 5 1020.2 - 0.0
03/01:30pm 19.6 16.0 0.4 27 8.5 ENE 9 15 5 8 1020.6 - 0.0
03/01:00pm 19.0 15.0 0.7 29 8.1 E 11 19 6 10 1021.1 - 0.0
03/12:30pm 18.5 14.8 2.2 33 7.4 NE 11 17 6 9 1021.7 - 0.0
03/12:00pm 18.1 14.0 2.5 35 7.1 ENE 13 19 7 10 1022.3 1022.3 0.0
03/11:30am 17.6 13.4 3.6 39 6.5 E 15 22 8 12 1022.3 - 0.0
03/11:00am 17.2 12.6 3.9 41 6.2 NE 17 24 9 13 1022.9 - 0.0
03/10:30am 16.8 10.5 3.9 42 6.0 ENE 26 39 14 21 1023.1 - 0.0
03/10:00am 15.6 10.4 3.8 45 5.4 ENE 20 32 11 17 1023.2 - 0.0
03/09:30am 14.1 7.9 4.5 52 4.4 ENE 26 35 14 19 1023.3 - 0.0
03/09:00am 12.5 6.0 4.6 58 3.6 ENE 28 37 15 20 1023.6 1023.7 0.0
03/08:30am 11.2 4.0 4.8 64 2.9 ENE 32 39 17 21 1023.7 - 0.0
03/08:00am 10.1 2.9 5.0 70 2.3 ENE 32 41 17 22 1024.0 - 0.0
03/07:31am 9.4 3.0 5.2 75 1.9 ENE 28 35 15 19 1024.0 - 0.0
03/07:00am 8.9 3.3 5.3 78 1.6 ENE 24 35 13 19 1023.8 - 0.0
03/06:30am 8.7 3.8 5.3 79 1.5 ENE 20 33 11 18 1023.7 - 0.0
03/06:00am 8.9 3.3 5.6 80 1.5 ENE 24 32 13 17 1023.5 1023.6 0.0
03/05:39am 9.0 2.3 5.7 80 1.5 E 30 48 16 26 1023.2 - 0.0
03/05:30am 9.1 2.8 5.8 80 1.5 E 28 35 15 19 1023.1 - 0.0
03/05:00am 9.1 2.9 6.0 81 1.4 E 28 43 15 23 1022.8 - 0.0
03/04:30am 9.2 3.4 6.1 81 1.4 E 26 39 14 21 1023.1 - 0.0
03/04:00am 9.4 4.7 6.1 80 1.5 E 20 32 11 17 1023.3 - 0.0
03/03:30am 9.6 5.1 6.3 80 1.5 E 19 28 10 15 1023.5 - 0.0
03/03:00am 9.7 6.4 6.5 80 1.5 E 13 19 7 10 1023.6 1023.7 0.0
03/02:30am 9.8 6.5 6.6 80 1.5 E 13 19 7 10 1023.9 - 0.0
03/02:00am 9.9 6.2 6.4 79 1.6 E 15 26 8 14 1024.1 - 0.0
03/01:30am 10.3 6.2 6.2 76 1.9 ESE 17 26 9 14 1024.5 - 0.0
03/01:00am 10.3 7.7 5.9 74 2.0 ESE 9 15 5 8 1024.8 - 0.0
03/12:30am 10.3 7.3 5.9 74 2.0 SE 11 15 6 8 1025.0 - 0.0
03/12:00am 9.6 6.2 6.1 79 1.6 SSE 13 17 7 9 1024.9 1025.0 0.0
 
Date/Time
WST
Tmp

°C
App
Tmp
°C
Dew
Point
°C
Rel
Hum
%
Delta-T

°C
Wind Press
QNH
hPa
Press
MSL
hPa
Rain
since
9 am
mm
Dir
 
Spd
km/h
Gust
km/h
Spd
kts
Gust
kts
02/11:30pm 10.9 7.1 5.9 71 2.3 SE 15 24 8 13 1025.4 - 0.0
02/11:00pm 11.7 8.3 5.9 67 2.7 SE 13 17 7 9 1025.6 - 0.0
02/10:30pm 12.5 8.5 5.1 60 3.4 ESE 15 19 8 10 1025.9 - 0.0
02/10:00pm 12.3 9.2 5.4 63 3.2 ESE 11 15 6 8 1025.9 - 0.0
02/09:30pm 12.3 9.2 5.6 63 3.1 ESE 11 17 6 9 1025.8 - 0.0
02/09:00pm 12.3 9.0 6.6 68 2.7 ESE 13 17 7 9 1025.7 - 0.0
02/08:30pm 12.5 9.5 5.9 64 3.1 ESE 11 11 6 6 1025.7 - 0.0
02/08:00pm 12.5 10.0 6.4 66 2.9 E 9 13 5 7 1025.3 - 0.0
02/07:30pm 12.6 9.6 6.0 64 3.1 E 11 13 6 7 1025.2 - 0.0
02/07:00pm 13.2 9.5 4.7 56 3.9 E 13 17 7 9 1025.2 - 0.0
02/06:30pm 13.1 10.0 5.6 60 3.5 ESE 11 15 6 8 1025.2 - 0.0
02/06:00pm 13.5 10.2 4.3 53 4.2 E 11 15 6 8 1025.0 1025.1 0.0
02/05:30pm 13.8 10.0 4.1 52 4.4 E 13 17 7 9 1025.1 - 0.0
02/05:00pm 14.1 10.2 3.4 48 4.8 E 13 17 7 9 1025.0 - 0.0
02/04:30pm 14.3 9.9 2.8 46 5.1 E 15 19 8 10 1024.8 - 0.0
02/04:00pm 14.6 9.4 2.6 44 5.3 E 19 28 10 15 1024.8 - 0.0
02/03:30pm 14.9 10.2 3.1 45 5.3 E 17 24 9 13 1024.8 - 0.0
02/03:00pm 15.0 10.2 2.6 43 5.5 E 17 24 9 13 1024.9 1025.0 0.0
02/02:30pm 15.1 9.3 2.5 42 5.6 SSE 22 32 12 17 1024.7 - 0.0
02/02:00pm 15.8 11.2 1.7 38 6.2 ESE 15 28 8 15 1024.7 - 0.0
02/01:30pm 16.4 10.4 1.3 36 6.6 E 22 32 12 17 1024.8 - 0.0
02/01:00pm 15.5 8.9 2.1 40 5.9 ENE 26 37 14 20 1025.4 - 0.0
02/12:30pm 15.8 9.6 2.0 39 6.1 E 24 33 13 18 1025.7 - 0.0
02/12:00pm 15.3 9.1 2.1 41 5.8 ENE 24 33 13 18 1026.1 1026.2 0.0
02/11:30am 14.3 8.1 2.2 44 5.3 E 24 33 13 18 1026.4 - 0.0
02/11:00am 14.3 9.4 2.2 44 5.3 ESE 17 28 9 15 1026.9 - 0.0
02/10:30am 13.7 7.9 2.5 46 4.9 E 22 28 12 15 1027.5 - 0.0
02/10:00am 13.2 7.8 2.7 49 4.6 ESE 20 28 11 15 1027.7 - 0.0
02/09:30am 12.2 9.7 3.6 55 3.8 E 6 9 3 5 1028.1 - 0.0
02/09:00am 10.8 9.1 4.0 63 3.0 E 2 7 1 4 1028.3 1028.4 0.0
02/08:36am 8.1 5.5 3.4 72 2.0 E 6 7 3 4 1028.5 - 0.0
02/08:30am 8.1 5.9 3.1 71 2.1 E 4 7 2 4 1028.4 - 0.0
02/08:00am 6.9 4.2 2.8 75 1.7 E 6 7 3 4 1028.3 - 0.0
02/07:30am 4.4 1.5 2.7 89 0.7 E 7 7 4 4 1028.1 - 0.0
02/07:00am 2.3 0.5 1.5 94 0.3 CALM 0 0 0 0 1027.7 - 0.0
02/06:30am 1.7 -1.2 1.2 96 0.2 ESE 6 7 3 4 1027.4 - 0.0
02/06:00am 2.1 -0.8 1.3 94 0.3 E 6 7 3 4 1027.2 1027.3 0.0
02/05:30am 2.7 -0.1 1.9 94 0.3 E 6 9 3 5 1027.0 - 0.0
02/05:00am 3.3 0.3 2.3 93 0.4 E 7 7 4 4 1026.7 - 0.0
02/04:30am 4.1 2.2 2.6 90 0.6 E 2 7 1 4 1026.5 - 0.0
02/04:00am 4.8 1.5 2.6 86 0.9 E 9 13 5 7 1026.1 - 0.0
02/03:30am 5.6 1.9 2.1 78 1.4 E 11 13 6 7 1026.1 - 0.0
02/03:00am 5.3 2.4 2.6 83 1.1 E 7 7 4 4 1026.0 1026.1 0.0
02/02:30am 5.7 2.4 2.5 80 1.3 E 9 13 5 7 1026.0 - 0.0
02/02:00am 6.4 2.7 2.5 76 1.6 E 11 15 6 8 1026.1 - 0.0
02/01:30am 7.3 4.3 2.2 70 2.1 ESE 7 13 4 7 1026.1 - 0.0
02/01:00am 6.4 4.6 3.3 80 1.3 ESE 2 9 1 5 1026.0 - 0.0
02/12:30am 7.1 3.9 3.0 75 1.7 E 9 13 5 7 1025.9 - 0.0
02/12:00am 8.2 5.4 3.0 70 2.2 ESE 7 13 4 7 1026.1 1026.2 0.0
 
Date/Time
WST
Tmp

°C
App
Tmp
°C
Dew
Point
°C
Rel
Hum
%
Delta-T

°C
Wind Press
QNH
hPa
Press
MSL
hPa
Rain
since
9 am
mm
Dir
 
Spd
km/h
Gust
km/h
Spd
kts
Gust
kts
01/11:30pm 9.2 6.0 2.8 64 2.7 ESE 9 19 5 10 1026.0 - 0.0
01/11:00pm 8.1 5.1 3.9 75 1.8 ESE 9 17 5 9 1026.1 - 0.0
01/10:30pm 8.7 4.9 4.1 73 2.0 ESE 13 19 7 10 1026.1 - 0.0
01/10:00pm 7.6 3.9 4.6 81 1.3 ESE 13 22 7 12 1026.1 - 0.0
01/09:30pm 6.9 3.3 4.8 86 0.9 SSE 13 17 7 9 1025.9 - 0.0
01/09:00pm 7.9 4.3 5.2 83 1.2 SE 13 19 7 10 1025.7 1025.8 0.0
01/08:30pm 8.0 5.3 5.5 84 1.1 SSE 9 13 5 7 1025.4 - 0.0

Latest Capital City Observations: Canberra | Sydney | Melbourne | Brisbane | Adelaide | Perth | Hobart | Darwin

Other Formats:

Comma delimited format used in spreadsheet applications
http://www.bom.gov.au/fwo/IDW60901/IDW60901.94610.axf

JavaScript Object Notation format (JSON) in row-major order
http://www.bom.gov.au/fwo/IDW60901/IDW60901.94610.json